createdAt,value
2023-01-13T04:57:31.015Z,100804.84
2023-01-13T05:00:34.181Z,100804.84
2023-01-13T05:03:36.484Z,100805.16
2023-01-13T05:06:39.172Z,100812.87
2023-01-13T05:09:41.844Z,100811.13
2023-01-13T05:13:03.979Z,100811.06
2023-01-13T05:16:29.037Z,100814.47
2023-01-13T05:19:34.531Z,100817.97
2023-01-13T05:22:55.655Z,100814.56
2023-01-13T05:25:58.363Z,100819.66
2023-01-13T05:29:00.787Z,100824.72
2023-01-13T05:32:06.581Z,100830.75
2023-01-13T05:35:09.179Z,100828.16
2023-01-13T05:38:13.038Z,100825.53
2023-01-13T05:41:33.729Z,100823.81
2023-01-13T05:44:36.459Z,100817.00
2023-01-13T05:47:39.303Z,100822.16
2023-01-13T05:50:42.631Z,100817.00
2023-01-13T05:53:45.253Z,100827.41
2023-01-13T05:56:48.263Z,100824.81
2023-01-13T05:59:51.035Z,100825.56
2023-01-13T06:02:54.067Z,100813.44
2023-01-13T06:06:01.419Z,100824.72
2023-01-13T06:09:04.114Z,100832.53
2023-01-13T06:12:07.126Z,100825.59
2023-01-13T06:15:09.908Z,100818.69
2023-01-13T06:18:12.612Z,100812.72
2023-01-13T06:21:15.066Z,100823.00
2023-01-13T06:24:17.811Z,100832.56
2023-01-13T06:27:22.064Z,100825.62
2023-01-13T06:30:27.577Z,100826.53
2023-01-13T06:33:52.621Z,100829.09
2023-01-13T06:36:56.051Z,100829.13
2023-01-13T06:40:01.603Z,100830.81
2023-01-13T06:43:17.659Z,100833.41
2023-01-13T06:46:20.970Z,100840.19
2023-01-13T06:49:23.734Z,100836.66
2023-01-13T06:52:27.400Z,100840.09
2023-01-13T06:55:30.010Z,100844.31
2023-01-13T06:58:32.526Z,100847.00
2023-01-13T07:01:35.263Z,100845.31
2023-01-13T07:04:38.041Z,100850.53
2023-01-13T07:07:41.915Z,100835.88
2023-01-13T07:10:44.584Z,100860.87
2023-01-13T07:14:06.061Z,100851.41
2023-01-13T07:17:08.412Z,100860.91
2023-01-13T07:20:11.648Z,100853.00
2023-01-13T07:23:14.201Z,100849.34
2023-01-13T07:26:17.230Z,100837.09
2023-01-13T07:29:19.762Z,100836.19
2023-01-13T07:32:22.810Z,100837.09
2023-01-13T07:35:25.255Z,100842.06
2023-01-13T07:38:28.833Z,100841.84
2023-01-13T07:41:49.837Z,100845.16
2023-01-13T07:44:52.730Z,100835.66
2023-01-13T07:47:55.196Z,100847.66
2023-01-13T07:51:05.270Z,100856.25
2023-01-13T07:54:07.843Z,100856.16
2023-01-13T07:57:10.546Z,100850.81
2023-01-13T08:00:13.839Z,100855.22
2023-01-13T08:03:16.628Z,100860.37
2023-01-13T08:06:19.082Z,100870.03
2023-01-13T08:09:22.020Z,100868.97
2023-01-13T08:12:51.989Z,100864.47
2023-01-13T08:16:13.964Z,100875.81
2023-01-13T08:19:17.696Z,100880.34
2023-01-13T08:22:20.425Z,100881.22
2023-01-13T08:25:23.752Z,100875.50
2023-01-13T08:28:33.932Z,100885.03
2023-01-13T08:31:36.329Z,100884.34
2023-01-13T08:34:39.701Z,100891.28
2023-01-13T08:37:42.178Z,100885.16
2023-01-13T08:40:45.082Z,100886.88
2023-01-13T08:43:47.458Z,100901.56
2023-01-13T08:46:50.117Z,100895.44
2023-01-13T08:49:52.566Z,100892.72
2023-01-13T08:52:55.409Z,100897.78
2023-01-13T08:55:58.204Z,100908.06
2023-01-13T08:59:01.236Z,100908.94
2023-01-13T09:02:04.446Z,100912.44
2023-01-13T09:05:08.929Z,100907.34
2023-01-13T09:08:12.561Z,100904.81
2023-01-13T09:11:38.606Z,100906.72
2023-01-13T09:14:41.207Z,100911.13
2023-01-13T09:17:45.051Z,100899.03
2023-01-13T09:20:47.375Z,100901.69
2023-01-13T09:23:49.978Z,100902.53
2023-01-13T09:26:52.918Z,100903.34
2023-01-13T09:29:55.751Z,100895.47
2023-01-13T09:33:17.584Z,100896.31
2023-01-13T09:36:20.590Z,100897.19
2023-01-13T09:39:23.348Z,100899.66
2023-01-13T09:43:07.928Z,100899.50
2023-01-13T09:46:41.569Z,100893.47
2023-01-13T09:49:44.769Z,100884.16
2023-01-13T09:52:48.202Z,100881.66
2023-01-13T09:55:52.847Z,100882.44
2023-01-13T09:58:55.314Z,100883.34
2023-01-13T10:02:11.824Z,100882.44
2023-01-13T10:05:38.880Z,100883.31
2023-01-13T10:08:43.942Z,100883.22
2023-01-13T10:12:08.044Z,100890.06
2023-01-13T10:15:19.549Z,100884.84
2023-01-13T10:18:33.319Z,100886.47
2023-01-13T10:22:10.186Z,100884.59
2023-01-13T10:25:14.783Z,100882.69
2023-01-13T10:28:24.794Z,100877.59
2023-01-13T10:31:27.655Z,100881.06
2023-01-13T10:34:30.397Z,100880.97
2023-01-13T10:37:33.002Z,100884.34
2023-01-13T10:40:35.963Z,100877.44
2023-01-13T10:43:43.884Z,100873.91
2023-01-13T10:46:55.374Z,100873.72
2023-01-13T10:50:01.174Z,100856.50
2023-01-13T10:53:23.147Z,100860.31
2023-01-13T10:56:32.621Z,100861.25
2023-01-13T10:59:35.039Z,100842.34
2023-01-13T11:02:38.613Z,100839.75
2023-01-13T11:05:48.910Z,100827.16
2023-01-13T11:08:55.346Z,100835.72
2023-01-13T11:11:59.448Z,100836.53
2023-01-13T11:15:08.823Z,100833.13
2023-01-13T11:18:22.426Z,100818.31
2023-01-13T11:21:31.977Z,100817.34
2023-01-13T11:24:40.058Z,100817.44
2023-01-13T11:27:47.671Z,100811.53
2023-01-13T11:30:56.795Z,100802.22
2023-01-13T11:34:18.601Z,100800.38
2023-01-13T11:37:30.958Z,100809.03
2023-01-13T11:40:42.585Z,100803.06
2023-01-13T11:44:05.101Z,100797.72
2023-01-13T11:47:11.989Z,100804.56
2023-01-13T11:50:37.132Z,100798.66
2023-01-13T11:54:05.756Z,100796.78
2023-01-13T11:57:27.171Z,100794.00
2023-01-13T12:00:56.088Z,100775.69
2023-01-13T12:04:28.043Z,100769.75
2023-01-13T12:07:54.854Z,100764.66
2023-01-13T12:11:16.181Z,100759.44
2023-01-13T12:14:34.534Z,100744.63
2023-01-13T12:17:55.474Z,100734.22
2023-01-13T12:21:10.425Z,100722.88
2023-01-13T12:24:26.035Z,100718.47
2023-01-13T12:27:40.641Z,100728.25
2023-01-13T12:30:51.767Z,100728.19
2023-01-13T12:34:20.424Z,100719.84
2023-01-13T12:37:43.071Z,100719.03
2023-01-13T12:40:58.480Z,100730.38
2023-01-13T12:44:17.025Z,100739.59
2023-01-13T12:47:49.287Z,100737.00
2023-01-13T12:51:02.597Z,100742.19
2023-01-13T12:54:33.690Z,100730.91
2023-01-13T12:57:37.221Z,100731.75
2023-01-13T13:00:45.284Z,100728.09
2023-01-13T13:04:11.402Z,100726.44
2023-01-13T13:07:21.017Z,100719.34
2023-01-13T13:10:36.908Z,100718.37
2023-01-13T13:13:46.918Z,100732.00
2023-01-13T13:16:53.010Z,100733.62
2023-01-13T13:19:57.712Z,100738.59
2023-01-13T13:23:00.548Z,100738.63
2023-01-13T13:26:11.791Z,100750.72
2023-01-13T13:29:42.936Z,100743.75
2023-01-13T13:33:26.927Z,100734.09
2023-01-13T13:36:35.556Z,100736.50
2023-01-13T13:40:01.461Z,100732.06
2023-01-13T13:43:30.364Z,100725.22
2023-01-13T13:46:47.136Z,100728.87
2023-01-13T13:49:54.381Z,100739.06
2023-01-13T13:53:07.021Z,100737.34
2023-01-13T13:56:22.918Z,100734.66
2023-01-13T13:59:30.431Z,100744.97
2023-01-13T14:02:37.364Z,100751.94
2023-01-13T14:05:40.929Z,100751.97
2023-01-13T14:08:50.263Z,100751.91
2023-01-13T14:12:06.666Z,100757.62
2023-01-13T14:15:31.634Z,100756.56
2023-01-13T14:18:44.560Z,100761.72
2023-01-13T14:21:48.123Z,100753.69
2023-01-13T14:24:55.568Z,100759.75
2023-01-13T14:28:03.221Z,100759.72
2023-01-13T14:31:08.487Z,100752.75
2023-01-13T14:34:32.113Z,100758.91
2023-01-13T14:37:39.583Z,100752.00
2023-01-13T14:40:45.734Z,100752.88
2023-01-13T14:43:50.670Z,100746.78
2023-01-13T14:46:56.537Z,100761.34
2023-01-13T14:50:08.959Z,100767.31
2023-01-13T14:53:38.844Z,100763.78
2023-01-13T14:56:50.715Z,100760.50
2023-01-13T15:00:15.114Z,100756.09
2023-01-13T15:03:21.074Z,100750.16
2023-01-13T15:06:25.647Z,100752.81
2023-01-13T15:09:38.039Z,100762.34
2023-01-13T15:12:41.026Z,100759.75
2023-01-13T15:15:49.497Z,100759.03
2023-01-13T15:18:53.203Z,100754.81
2023-01-13T15:21:56.529Z,100746.25
2023-01-13T15:24:59.039Z,100748.22
2023-01-13T15:28:02.171Z,100751.72
2023-01-13T15:31:04.746Z,100756.16
2023-01-13T15:34:07.701Z,100760.69
2023-01-13T15:37:10.337Z,100763.16
2023-01-13T15:40:25.836Z,100766.56
2023-01-13T15:43:47.003Z,100758.84
2023-01-13T15:46:50.433Z,100758.97
2023-01-13T15:49:53.986Z,100761.56
2023-01-13T15:52:57.980Z,100762.41
2023-01-13T15:56:00.744Z,100775.31
2023-01-13T15:59:05.145Z,100781.28
2023-01-13T16:02:14.792Z,100777.78
2023-01-13T16:05:17.570Z,100780.41
2023-01-13T16:08:22.611Z,100784.59
2023-01-13T16:11:25.392Z,100776.81
2023-01-13T16:14:29.431Z,100781.97
2023-01-13T16:17:34.248Z,100781.06
2023-01-13T16:20:40.222Z,100774.88
2023-01-13T16:23:43.018Z,100779.19
2023-01-13T16:26:45.411Z,100773.13
2023-01-13T16:29:49.590Z,100773.03
2023-01-13T16:32:52.259Z,100771.31
